createdAt,value
2019-01-14T00:01:54.232Z,1.80
2019-01-14T00:04:22.656Z,1.40
2019-01-14T00:06:50.760Z,1.20
2019-01-14T00:09:23.281Z,1.20
2019-01-14T00:11:49.308Z,1.20
2019-01-14T00:14:17.724Z,0.90
2019-01-14T00:16:46.148Z,0.90
2019-01-14T00:19:14.256Z,0.97
2019-01-14T00:21:42.683Z,0.90
2019-01-14T00:24:11.205Z,0.90
2019-01-14T00:26:39.340Z,0.90
2019-01-14T00:29:07.424Z,0.70
2019-01-14T00:31:35.535Z,0.90
2019-01-14T00:34:04.212Z,0.80
2019-01-14T00:36:32.801Z,1.30
2019-01-14T00:39:01.284Z,0.70
2019-01-14T00:41:30.117Z,1.00
2019-01-14T00:43:58.564Z,1.17
2019-01-14T00:46:26.665Z,1.50
2019-01-14T00:48:54.820Z,1.20
2019-01-14T00:51:22.975Z,1.27
2019-01-14T00:53:51.109Z,1.60
2019-01-14T00:56:19.188Z,1.80
2019-01-14T00:58:47.285Z,1.83
2019-01-14T01:01:15.699Z,1.80
2019-01-14T01:03:43.788Z,2.23
2019-01-14T01:06:12.248Z,2.27
2019-01-14T01:08:40.677Z,1.87
2019-01-14T01:11:09.084Z,2.10
2019-01-14T01:13:37.507Z,2.17
2019-01-14T01:16:05.993Z,2.27
2019-01-14T01:18:34.657Z,2.00
2019-01-14T01:21:03.946Z,1.70
2019-01-14T01:23:32.033Z,1.47
2019-01-14T01:26:00.449Z,2.33
2019-01-14T01:28:29.121Z,2.07
2019-01-14T01:30:57.651Z,1.73
2019-01-14T01:33:26.064Z,1.90
2019-01-14T01:35:54.488Z,2.00
2019-01-14T01:38:22.905Z,2.27
2019-01-14T01:40:51.317Z,2.20
2019-01-14T01:43:20.057Z,1.97
2019-01-14T01:45:48.470Z,2.03
2019-01-14T01:48:16.909Z,2.50
2019-01-14T01:50:45.325Z,2.20
2019-01-14T01:53:13.749Z,2.50
2019-01-14T01:55:41.838Z,2.33
2019-01-14T01:58:10.144Z,2.07
2019-01-14T02:00:38.554Z,2.23
2019-01-14T02:03:06.987Z,2.40
2019-01-14T02:05:35.414Z,2.00
2019-01-14T02:08:03.840Z,1.73
2019-01-14T02:10:32.598Z,1.83
2019-01-14T02:13:01.032Z,2.07
2019-01-14T02:15:29.121Z,2.30
2019-01-14T02:17:57.293Z,1.80
2019-01-14T02:20:25.704Z,2.10
2019-01-14T02:22:54.185Z,1.90
2019-01-14T02:25:22.613Z,1.60
2019-01-14T02:27:50.701Z,2.00
2019-01-14T02:30:21.362Z,2.00
2019-01-14T02:32:49.837Z,2.10
2019-01-14T02:35:18.258Z,1.90
2019-01-14T02:37:46.404Z,1.67
2019-01-14T02:40:15.429Z,1.47
2019-01-14T02:42:43.916Z,1.90
2019-01-14T02:45:13.572Z,1.10
2019-01-14T02:47:41.670Z,2.00
2019-01-14T02:50:10.424Z,2.23
2019-01-14T02:52:39.828Z,1.50
2019-01-14T02:55:09.610Z,1.60
2019-01-14T02:57:38.097Z,1.40
2019-01-14T03:00:12.582Z,2.43
2019-01-14T03:02:40.673Z,1.60
2019-01-14T03:05:09.345Z,1.90
2019-01-14T03:07:37.764Z,1.43
2019-01-14T03:10:09.189Z,1.30
2019-01-14T03:12:37.601Z,1.70
2019-01-14T03:15:08.561Z,1.63
2019-01-14T03:17:36.639Z,1.70
2019-01-14T03:20:08.912Z,1.70
2019-01-14T03:22:37.000Z,2.03
2019-01-14T03:25:05.673Z,1.73
2019-01-14T03:27:34.083Z,1.70
2019-01-14T03:30:02.783Z,2.00
2019-01-14T03:32:31.219Z,2.03
2019-01-14T03:34:59.370Z,2.00
2019-01-14T03:37:27.789Z,2.43
2019-01-14T03:39:56.217Z,2.43
2019-01-14T03:42:24.635Z,1.83
2019-01-14T03:44:52.720Z,1.77
2019-01-14T03:47:20.802Z,1.97
2019-01-14T03:49:48.895Z,1.70
2019-01-14T03:52:16.986Z,1.90
2019-01-14T03:54:45.410Z,1.87
2019-01-14T03:57:13.500Z,2.03
2019-01-14T03:59:41.613Z,1.63
2019-01-14T04:02:10.028Z,2.10
2019-01-14T04:04:38.454Z,2.30
2019-01-14T04:07:13.539Z,1.80
2019-01-14T04:09:37.005Z,2.37
2019-01-14T04:12:05.472Z,1.67
2019-01-14T04:14:33.918Z,2.10
2019-01-14T04:17:02.603Z,1.90
2019-01-14T04:19:30.938Z,2.73
2019-01-14T04:21:59.023Z,2.00
2019-01-14T04:24:27.113Z,2.10
2019-01-14T04:26:55.208Z,1.70
2019-01-14T04:29:23.629Z,2.10
2019-01-14T04:31:51.712Z,1.60
2019-01-14T04:34:19.788Z,1.87
2019-01-14T04:36:48.214Z,1.93
2019-01-14T04:39:16.316Z,1.90
2019-01-14T04:41:44.744Z,1.63
2019-01-14T04:44:12.878Z,1.70
2019-01-14T04:46:40.969Z,2.03
2019-01-14T04:49:09.054Z,1.60
2019-01-14T04:51:37.145Z,2.20
2019-01-14T04:54:05.239Z,2.00
2019-01-14T04:56:33.336Z,1.80
2019-01-14T04:59:01.421Z,1.73
2019-01-14T05:01:29.850Z,1.70
2019-01-14T05:03:58.265Z,2.40
2019-01-14T05:06:26.936Z,1.50
2019-01-14T05:08:55.356Z,1.80
2019-01-14T05:11:23.794Z,1.67
2019-01-14T05:13:52.127Z,1.93
2019-01-14T05:16:20.552Z,1.60
2019-01-14T05:18:48.877Z,2.30
2019-01-14T05:21:17.222Z,1.70
2019-01-14T05:23:45.305Z,2.13
2019-01-14T05:26:13.403Z,1.63
2019-01-14T05:28:41.487Z,1.70
2019-01-14T05:31:09.912Z,1.30
2019-01-14T05:33:38.322Z,1.70
2019-01-14T05:36:06.758Z,1.90
2019-01-14T05:38:35.169Z,1.63
2019-01-14T05:41:03.581Z,1.50
2019-01-14T05:43:32.016Z,1.60
2019-01-14T05:46:00.427Z,2.10
2019-01-14T05:48:28.861Z,1.50
2019-01-14T05:50:56.956Z,1.73
2019-01-14T05:53:25.101Z,1.70
2019-01-14T05:55:53.461Z,2.00
2019-01-14T05:58:21.552Z,1.70
2019-01-14T06:00:50.171Z,2.03
2019-01-14T06:03:18.790Z,2.10
2019-01-14T06:05:47.206Z,1.90
2019-01-14T06:08:15.724Z,2.10
2019-01-14T06:10:44.186Z,1.80
2019-01-14T06:13:12.608Z,2.07
2019-01-14T06:15:40.693Z,2.10
2019-01-14T06:18:09.016Z,1.70
2019-01-14T06:20:37.190Z,1.80
2019-01-14T06:23:05.276Z,1.70
2019-01-14T06:25:33.360Z,1.60
2019-01-14T06:28:01.460Z,1.70
2019-01-14T06:30:30.533Z,1.50
2019-01-14T06:32:58.961Z,1.33
2019-01-14T06:35:27.605Z,1.90
2019-01-14T06:37:56.031Z,1.73
2019-01-14T06:40:24.440Z,1.80
2019-01-14T06:42:52.983Z,1.67
2019-01-14T06:45:21.071Z,2.27
2019-01-14T06:47:49.173Z,1.93
2019-01-14T06:50:18.139Z,1.90
2019-01-14T06:52:46.656Z,1.73
2019-01-14T06:55:15.624Z,2.00
2019-01-14T06:57:43.712Z,2.10
2019-01-14T07:00:18.054Z,1.80
2019-01-14T07:02:46.146Z,2.00
2019-01-14T07:05:15.002Z,2.00
2019-01-14T07:07:43.162Z,2.03
2019-01-14T07:10:12.853Z,1.80
2019-01-14T07:12:41.284Z,2.37
2019-01-14T07:15:09.860Z,2.30
2019-01-14T07:17:38.546Z,2.07
2019-01-14T07:20:08.517Z,2.43
2019-01-14T07:22:36.988Z,1.90
2019-01-14T07:25:05.951Z,1.97
2019-01-14T07:27:34.371Z,2.40
2019-01-14T07:30:04.505Z,2.40
2019-01-14T07:32:32.917Z,2.30
2019-01-14T07:35:02.228Z,2.40
2019-01-14T07:37:30.813Z,2.40
2019-01-14T07:39:59.522Z,2.30
2019-01-14T07:42:27.991Z,2.00
2019-01-14T07:44:56.345Z,2.93
2019-01-14T07:47:24.772Z,2.80
2019-01-14T07:49:53.125Z,2.13
2019-01-14T07:52:21.204Z,2.37
2019-01-14T07:54:49.298Z,2.20
2019-01-14T07:57:17.544Z,2.50
2019-01-14T07:59:45.881Z,2.00
2019-01-14T08:02:13.962Z,2.67
2019-01-14T08:04:42.391Z,2.80
2019-01-14T08:07:10.807Z,2.27
2019-01-14T08:09:39.238Z,2.40
2019-01-14T08:12:07.648Z,2.20
2019-01-14T08:14:36.085Z,2.67
2019-01-14T08:17:04.578Z,2.90
2019-01-14T08:19:32.671Z,2.47
2019-01-14T08:22:01.257Z,2.40
2019-01-14T08:24:29.371Z,2.93
2019-01-14T08:26:57.465Z,2.60
2019-01-14T08:29:25.900Z,2.73
2019-01-14T08:31:53.996Z,3.00
2019-01-14T08:34:22.454Z,2.70
2019-01-14T08:36:50.536Z,2.43
2019-01-14T08:39:18.685Z,2.90
2019-01-14T08:41:48.762Z,2.23
2019-01-14T08:44:17.276Z,2.53
2019-01-14T08:46:45.710Z,2.90
2019-01-14T08:49:14.125Z,2.47
2019-01-14T08:51:42.218Z,2.40
2019-01-14T08:54:10.637Z,2.60
2019-01-14T08:56:38.732Z,3.17
2019-01-14T08:59:07.188Z,2.80
2019-01-14T09:01:35.618Z,2.80
2019-01-14T09:04:04.565Z,2.50
2019-01-14T09:06:33.162Z,2.97
2019-01-14T09:09:01.578Z,2.40
2019-01-14T09:11:30.013Z,2.60
2019-01-14T09:13:58.092Z,2.70
2019-01-14T09:16:26.180Z,2.40
2019-01-14T09:18:54.261Z,2.30
2019-01-14T09:21:22.757Z,2.53
2019-01-14T09:23:50.833Z,2.83
2019-01-14T09:26:19.278Z,2.20
2019-01-14T09:28:47.342Z,2.50
2019-01-14T09:31:15.806Z,2.37
2019-01-14T09:33:44.390Z,2.63
2019-01-14T09:36:12.843Z,2.80
2019-01-14T09:38:40.906Z,2.50
2019-01-14T09:41:09.336Z,2.80
2019-01-14T09:43:37.829Z,3.00
2019-01-14T09:46:05.934Z,2.47
2019-01-14T09:48:34.345Z,2.97
2019-01-14T09:51:02.781Z,2.60
2019-01-14T09:53:30.858Z,2.40
2019-01-14T09:55:58.949Z,2.90
2019-01-14T09:58:27.373Z,3.03
2019-01-14T10:00:55.469Z,3.17
2019-01-14T10:03:23.890Z,2.70
2019-01-14T10:05:52.344Z,3.10
2019-01-14T10:08:20.743Z,2.80
2019-01-14T10:10:49.263Z,2.73
2019-01-14T10:13:17.753Z,2.80
2019-01-14T10:15:46.543Z,3.23
2019-01-14T10:18:14.624Z,2.50
2019-01-14T10:20:42.719Z,2.60
2019-01-14T10:23:11.128Z,3.73
2019-01-14T10:25:39.233Z,2.93
2019-01-14T10:28:07.386Z,3.17
2019-01-14T10:30:35.480Z,2.70
2019-01-14T10:33:03.635Z,2.43
2019-01-14T10:35:31.958Z,2.60
2019-01-14T10:38:00.327Z,3.50
2019-01-14T10:40:28.747Z,2.97
2019-01-14T10:42:57.174Z,2.23
2019-01-14T10:45:25.605Z,2.50
2019-01-14T10:47:53.716Z,2.67
2019-01-14T10:50:22.293Z,2.47
2019-01-14T10:52:50.715Z,2.70
2019-01-14T10:55:19.048Z,2.10
2019-01-14T10:57:47.727Z,2.50
2019-01-14T11:00:24.480Z,1.90
2019-01-14T11:02:52.728Z,2.43
2019-01-14T11:05:27.040Z,2.63
2019-01-14T11:07:55.121Z,2.37
2019-01-14T11:10:23.538Z,2.57
2019-01-14T11:12:51.719Z,2.73
2019-01-14T11:15:21.933Z,2.70
2019-01-14T11:17:50.898Z,2.60
2019-01-14T11:20:26.165Z,2.10
2019-01-14T11:22:54.637Z,3.03
2019-01-14T11:25:23.053Z,3.47
2019-01-14T11:27:51.146Z,4.20
2019-01-14T11:30:25.102Z,3.60
2019-01-14T11:32:53.529Z,3.40
2019-01-14T11:35:22.074Z,3.23
2019-01-14T11:37:50.502Z,2.73
2019-01-14T11:40:32.613Z,2.77
2019-01-14T11:43:00.722Z,2.97
2019-01-14T11:45:28.798Z,2.90
2019-01-14T11:47:58.050Z,3.40
2019-01-14T11:50:26.606Z,3.30
2019-01-14T11:52:55.026Z,2.53
2019-01-14T11:55:23.122Z,3.07
2019-01-14T11:57:51.196Z,3.10
2019-01-14T12:00:24.360Z,2.83
2019-01-14T12:02:52.565Z,2.50
2019-01-14T12:05:21.303Z,2.90
2019-01-14T12:07:49.776Z,2.90
2019-01-14T12:10:18.354Z,2.77
2019-01-14T12:12:46.790Z,2.67
2019-01-14T12:15:16.343Z,2.77
2019-01-14T12:17:44.775Z,2.80
2019-01-14T12:20:13.637Z,2.43
2019-01-14T12:22:42.120Z,2.60
2019-01-14T12:25:10.269Z,2.83
2019-01-14T12:27:38.948Z,2.50
2019-01-14T12:30:13.062Z,2.53
2019-01-14T12:32:41.474Z,2.83
2019-01-14T12:35:10.211Z,2.87
2019-01-14T12:37:38.634Z,2.30
2019-01-14T12:40:10.380Z,2.60
2019-01-14T12:42:39.110Z,2.00
2019-01-14T12:45:08.864Z,2.33
2019-01-14T12:47:36.949Z,2.13
2019-01-14T12:50:06.556Z,2.20
2019-01-14T12:52:34.648Z,2.77
2019-01-14T12:55:03.586Z,2.40
2019-01-14T12:57:31.702Z,2.50
2019-01-14T12:59:59.861Z,2.07
2019-01-14T13:02:28.291Z,2.13
2019-01-14T13:04:56.703Z,1.77
2019-01-14T13:07:25.204Z,2.20
2019-01-14T13:09:53.291Z,2.10
2019-01-14T13:12:21.715Z,1.80
2019-01-14T13:14:50.129Z,1.60
2019-01-14T13:17:18.575Z,1.80
2019-01-14T13:19:46.668Z,1.37
2019-01-14T13:22:15.076Z,1.93
2019-01-14T13:24:43.164Z,1.53
2019-01-14T13:27:11.254Z,1.87
2019-01-14T13:29:39.673Z,1.70
2019-01-14T13:32:08.194Z,1.80
2019-01-14T13:34:36.912Z,1.80
2019-01-14T13:37:05.401Z,1.90
2019-01-14T13:39:34.059Z,1.80
2019-01-14T13:42:03.064Z,1.90
2019-01-14T13:44:31.481Z,2.07
2019-01-14T13:46:59.889Z,1.77
2019-01-14T13:49:28.316Z,1.00
2019-01-14T13:51:56.412Z,0.80
2019-01-14T13:54:24.909Z,1.10
2019-01-14T13:56:53.317Z,1.77
2019-01-14T13:59:21.429Z,0.50
2019-01-14T14:01:49.851Z,1.10
2019-01-14T14:04:18.280Z,0.70
2019-01-14T14:06:46.769Z,0.40
2019-01-14T14:09:15.198Z,0.50
2019-01-14T14:11:43.629Z,0.80
2019-01-14T14:14:11.727Z,0.40
2019-01-14T14:16:40.132Z,0.70
2019-01-14T14:19:08.609Z,1.10
2019-01-14T14:21:36.684Z,0.70
2019-01-14T14:24:05.117Z,0.97
2019-01-14T14:26:33.208Z,0.85
2019-01-14T14:29:01.298Z,0.50
2019-01-14T14:31:29.724Z,0.50
2019-01-14T14:33:57.814Z,0.70
2019-01-14T14:36:25.915Z,0.70
2019-01-14T14:38:53.992Z,0.88
2019-01-14T14:41:22.183Z,0.70
2019-01-14T14:43:50.717Z,0.90
2019-01-14T14:46:18.816Z,0.88
2019-01-14T14:48:47.136Z,1.40
2019-01-14T14:51:15.296Z,1.17
2019-01-14T14:53:43.736Z,1.30
2019-01-14T14:56:11.844Z,1.70
2019-01-14T14:58:40.509Z,1.50
2019-01-14T15:01:08.965Z,2.10
2019-01-14T15:03:37.142Z,2.00
2019-01-14T15:06:05.575Z,1.50
2019-01-14T15:08:33.991Z,1.40
2019-01-14T15:11:02.417Z,1.70
2019-01-14T15:13:30.837Z,1.50
2019-01-14T15:16:00.549Z,1.77
2019-01-14T15:18:29.034Z,2.60
2019-01-14T15:20:57.147Z,2.08
2019-01-14T15:23:25.500Z,1.60
2019-01-14T15:25:53.833Z,1.90
2019-01-14T15:28:21.916Z,2.00
2019-01-14T15:30:50.026Z,2.37
2019-01-14T15:33:19.631Z,2.33
2019-01-14T15:35:48.160Z,4.37
2019-01-14T15:38:16.625Z,2.37
2019-01-14T15:40:45.125Z,5.87
2019-01-14T15:43:13.628Z,3.95
2019-01-14T15:45:42.172Z,2.63
2019-01-14T15:48:10.676Z,2.13
2019-01-14T15:50:39.092Z,1.75
2019-01-14T15:53:07.425Z,2.20
2019-01-14T15:55:35.595Z,2.43
2019-01-14T15:58:04.009Z,3.20
2019-01-14T16:00:32.132Z,3.47
2019-01-14T16:03:00.223Z,4.63
2019-01-14T16:05:28.882Z,3.67
2019-01-14T16:07:57.567Z,4.70
2019-01-14T16:10:26.184Z,6.80
2019-01-14T16:12:54.696Z,3.50
2019-01-14T16:15:23.030Z,4.87
2019-01-14T16:17:51.125Z,4.78
2019-01-14T16:20:20.304Z,4.97
2019-01-14T16:22:48.932Z,3.03
2019-01-14T16:25:17.966Z,2.20
2019-01-14T16:27:46.398Z,2.10
2019-01-14T16:30:19.963Z,2.03
2019-01-14T16:32:48.384Z,2.33
2019-01-14T16:35:17.213Z,2.57
2019-01-14T16:37:45.878Z,2.60
2019-01-14T16:40:18.282Z,2.70
2019-01-14T16:42:44.565Z,2.60
2019-01-14T16:45:14.482Z,2.67
2019-01-14T16:47:42.916Z,2.87
2019-01-14T16:50:12.224Z,2.97
2019-01-14T16:52:40.640Z,2.47
2019-01-14T16:55:10.805Z,2.67
2019-01-14T16:57:39.216Z,2.70
2019-01-14T17:00:13.824Z,1.93
2019-01-14T17:02:41.949Z,2.00
2019-01-14T17:05:13.523Z,2.17
2019-01-14T17:07:40.591Z,1.80
2019-01-14T17:10:12.257Z,1.67
2019-01-14T17:12:40.984Z,2.30
2019-01-14T17:15:09.137Z,1.70
2019-01-14T17:17:38.129Z,1.87
2019-01-14T17:20:12.513Z,2.40
2019-01-14T17:22:40.929Z,2.13
2019-01-14T17:25:09.117Z,1.97
2019-01-14T17:27:37.446Z,2.43
2019-01-14T17:30:08.921Z,2.00
2019-01-14T17:32:37.337Z,2.10
2019-01-14T17:35:06.224Z,1.53
2019-01-14T17:37:34.645Z,1.57
2019-01-14T17:40:05.104Z,1.70
2019-01-14T17:42:33.527Z,1.67
2019-01-14T17:45:01.946Z,1.50
2019-01-14T17:47:30.369Z,1.80
2019-01-14T17:49:59.005Z,1.93
2019-01-14T17:52:27.362Z,1.70
2019-01-14T17:54:55.460Z,2.30
2019-01-14T17:57:23.550Z,3.30
2019-01-14T17:59:51.645Z,2.70
2019-01-14T18:02:20.057Z,2.20
2019-01-14T18:04:48.645Z,2.30
2019-01-14T18:07:17.257Z,2.07
2019-01-14T18:09:45.809Z,2.17
2019-01-14T18:12:14.360Z,2.13
2019-01-14T18:14:42.789Z,2.33
2019-01-14T18:17:10.864Z,2.00
2019-01-14T18:19:38.963Z,2.25
2019-01-14T18:22:07.040Z,2.30
2019-01-14T18:24:35.150Z,2.40
2019-01-14T18:27:03.216Z,2.43
2019-01-14T18:29:31.747Z,7.83
2019-01-14T18:31:59.831Z,3.80
2019-01-14T18:34:28.332Z,4.40
2019-01-14T18:36:57.856Z,1.80
2019-01-14T18:39:26.340Z,1.90
2019-01-14T18:41:54.508Z,5.20
2019-01-14T18:44:22.882Z,10.17
2019-01-14T18:46:51.043Z,7.87
2019-01-14T18:49:19.224Z,7.13
2019-01-14T18:51:47.306Z,8.03
2019-01-14T18:54:15.701Z,8.57
2019-01-14T18:56:44.198Z,16.70
2019-01-14T18:59:12.637Z,11.03
2019-01-14T19:01:41.101Z,4.70
2019-01-14T19:04:09.619Z,5.33
2019-01-14T19:06:38.113Z,5.30
2019-01-14T19:09:08.637Z,3.30
2019-01-14T19:11:37.042Z,2.40
2019-01-14T19:14:05.485Z,2.30
2019-01-14T19:16:34.045Z,2.70
2019-01-14T19:19:02.733Z,2.20
2019-01-14T19:21:30.803Z,1.90
2019-01-14T19:23:58.901Z,2.20
2019-01-14T19:26:27.356Z,2.40
2019-01-14T19:28:55.456Z,2.90
2019-01-14T19:31:24.489Z,2.80
2019-01-14T19:33:52.593Z,2.30
2019-01-14T19:36:21.013Z,2.20
2019-01-14T19:38:49.104Z,2.77
2019-01-14T19:41:17.188Z,2.53
2019-01-14T19:43:45.637Z,2.40
2019-01-14T19:46:14.602Z,3.08
2019-01-14T19:48:42.848Z,2.90
2019-01-14T19:51:11.146Z,2.50
2019-01-14T19:53:39.252Z,2.87
2019-01-14T19:56:07.393Z,2.67
2019-01-14T19:58:35.480Z,2.30
2019-01-14T20:01:04.003Z,2.70
2019-01-14T20:03:32.088Z,2.90
2019-01-14T20:06:00.521Z,2.03
2019-01-14T20:08:29.247Z,2.23
2019-01-14T20:10:57.333Z,2.45
2019-01-14T20:13:25.821Z,2.42
2019-01-14T20:15:53.931Z,2.90
2019-01-14T20:18:22.604Z,3.63
2019-01-14T20:20:50.733Z,3.37
2019-01-14T20:23:19.074Z,3.40
2019-01-14T20:25:47.240Z,3.45
2019-01-14T20:28:15.350Z,3.52
2019-01-14T20:30:44.070Z,4.50
2019-01-14T20:33:12.498Z,3.60
2019-01-14T20:35:40.929Z,3.20
2019-01-14T20:38:09.406Z,4.10
2019-01-14T20:40:38.118Z,4.80
2019-01-14T20:43:06.529Z,3.97
2019-01-14T20:45:34.620Z,3.43
2019-01-14T20:48:02.714Z,3.73
2019-01-14T20:50:30.813Z,3.87
2019-01-14T20:52:58.888Z,4.20
2019-01-14T20:55:27.001Z,4.60
2019-01-14T20:57:55.084Z,4.87
2019-01-14T21:00:23.890Z,5.20
2019-01-14T21:02:52.171Z,5.90
2019-01-14T21:05:21.360Z,4.60
2019-01-14T21:07:49.841Z,3.73
2019-01-14T21:10:18.701Z,3.33
2019-01-14T21:12:47.218Z,3.70
2019-01-14T21:15:15.752Z,3.60
2019-01-14T21:17:44.319Z,4.13
2019-01-14T21:20:21.450Z,5.33
2019-01-14T21:22:50.497Z,4.73
2019-01-14T21:25:19.049Z,4.53
2019-01-14T21:27:47.212Z,4.63
2019-01-14T21:30:17.561Z,5.07
2019-01-14T21:32:45.655Z,5.17
2019-01-14T21:35:14.225Z,5.70
2019-01-14T21:37:43.699Z,5.67
2019-01-14T21:40:14.183Z,6.30
2019-01-14T21:42:42.633Z,6.93
2019-01-14T21:45:11.836Z,6.27
2019-01-14T21:47:40.587Z,6.60
2019-01-14T21:50:10.363Z,6.40
2019-01-14T21:52:38.797Z,5.77
2019-01-14T21:55:08.544Z,5.67
2019-01-14T21:57:37.074Z,5.27
2019-01-14T22:00:08.751Z,5.60
2019-01-14T22:02:37.224Z,5.53
2019-01-14T22:05:08.561Z,5.73
2019-01-14T22:07:37.001Z,6.13
2019-01-14T22:10:11.637Z,6.83
2019-01-14T22:12:40.065Z,6.70
2019-01-14T22:15:09.154Z,5.87
2019-01-14T22:17:37.588Z,6.53
2019-01-14T22:20:09.093Z,6.30
2019-01-14T22:22:37.634Z,5.80
2019-01-14T22:25:08.178Z,5.87
2019-01-14T22:27:36.593Z,4.53
2019-01-14T22:30:16.741Z,4.83
2019-01-14T22:32:45.169Z,4.77
2019-01-14T22:35:13.633Z,4.60
2019-01-14T22:37:42.064Z,4.50
2019-01-14T22:40:14.710Z,4.70
2019-01-14T22:42:43.190Z,4.57
2019-01-14T22:45:13.006Z,4.50
2019-01-14T22:47:41.189Z,4.23
2019-01-14T22:50:17.471Z,4.57
2019-01-14T22:52:45.889Z,4.70
2019-01-14T22:55:14.356Z,3.70
2019-01-14T22:57:42.805Z,3.97
2019-01-14T23:00:50.348Z,3.13
2019-01-14T23:03:19.551Z,3.00
2019-01-14T23:05:47.986Z,3.80
2019-01-14T23:08:16.471Z,3.57
2019-01-14T23:10:44.628Z,3.57
2019-01-14T23:13:13.086Z,4.30
2019-01-14T23:15:41.753Z,4.33
2019-01-14T23:18:10.204Z,4.20
2019-01-14T23:20:38.656Z,4.53
2019-01-14T23:23:06.809Z,3.73
2019-01-14T23:25:34.965Z,4.10
2019-01-14T23:28:03.078Z,3.53
2019-01-14T23:30:31.248Z,3.50
2019-01-14T23:32:59.356Z,4.20
2019-01-14T23:35:27.784Z,3.57
2019-01-14T23:37:56.219Z,3.47
2019-01-14T23:40:24.774Z,3.57
2019-01-14T23:42:53.317Z,4.30
2019-01-14T23:45:21.736Z,3.80
2019-01-14T23:47:50.206Z,3.37
2019-01-14T23:50:18.629Z,3.83
2019-01-14T23:52:46.731Z,3.77
2019-01-14T23:55:14.803Z,3.50
2019-01-14T23:57:43.248Z,4.27
